Terminal Aerodrome Forecast
Issued by NWS

Home | Current Version | Previous Version | Graphics & Text | Print | Product List | Glossary On
Versions: 1 2 3 4 5 6 7 8 9 10 11 12 13
000
FTUS41 KCLE 230543
TAFFDY
TAF
KFDY 230543Z 2306/2406 36006KT P6SM BKN035
     FM230800 36003KT P6SM SKC
      TEMPO 2309/2313 3SM BR
     FM231600 04006KT P6SM SCT050
     FM232300 VRB03KT P6SM SKC=

USA.gov is the U.S. government's official web portal to all federal, state and local government web resources and services.